Time;durP1;ratioP1;P1;durP2;ratioP2;P2;SDS_P1;SDS_P2;PMS_P1;PMS_P2;Temp;Humidity;BMP_temperature;BMP_pressure;BME280_temperature;BME280_humidity;BME280_pressure;Samples;Min_cycle;Max_cycle;Signal;HPM_P1;HPM_P2
2022/04/11 00:02:08;;;;;;;2.27;1.20;;;1.70;99.90;;;;;;5015712;28;20213;-70
2022/04/11 00:04:34;;;;;;;1.80;1.20;;;1.70;99.90;;;;;;5031976;28;20187;-68
2022/04/11 00:07:00;;;;;;;1.20;1.10;;;1.60;99.90;;;;;;5035163;28;20262;-70
2022/04/11 00:09:25;;;;;;;2.27;1.27;;;1.50;99.90;;;;;;5039788;28;20213;-71
2022/04/11 00:11:51;;;;;;;2.23;1.47;;;1.50;99.90;;;;;;5030923;28;20765;-70
2022/04/11 00:14:17;;;;;;;2.70;1.60;;;1.50;99.90;;;;;;5026985;28;20182;-71
2022/04/11 00:16:42;;;;;;;1.30;1.20;;;1.30;99.90;;;;;;5028316;28;20186;-69
2022/04/11 00:19:08;;;;;;;1.80;1.17;;;1.30;99.90;;;;;;5025615;28;20680;-68
2022/04/11 00:21:34;;;;;;;1.87;1.13;;;1.20;99.90;;;;;;5025274;28;20206;-70
2022/04/11 00:24:00;;;;;;;1.20;1.10;;;1.20;99.90;;;;;;5025627;28;20246;-70
2022/04/11 00:26:26;;;;;;;3.00;1.30;;;1.20;99.90;;;;;;5024522;28;20179;-69
2022/04/11 00:28:53;;;;;;;1.70;1.13;;;1.20;99.90;;;;;;5025117;28;20218;-69
2022/04/11 00:31:19;;;;;;;1.50;1.17;;;1.10;99.90;;;;;;5025108;28;20186;-72
2022/04/11 00:33:44;;;;;;;1.67;1.10;;;1.20;99.90;;;;;;5025198;28;20195;-68
2022/04/11 00:36:10;;;;;;;2.53;1.23;;;1.10;99.90;;;;;;5024950;28;20195;-70
2022/04/11 00:38:35;;;;;;;1.50;1.10;;;1.10;99.90;;;;;;5006203;28;20579;-70
2022/04/11 00:41:01;;;;;;;1.20;1.10;;;1.00;99.90;;;;;;5024982;28;20198;-71
2022/04/11 00:43:40;;;;;;;2.17;1.10;;;1.00;99.90;;;;;;5028891;28;20298;-69
2022/04/11 00:46:07;;;;;;;1.47;1.27;;;1.00;99.90;;;;;;5025305;28;20221;-70
2022/04/11 00:48:33;;;;;;;1.50;1.10;;;1.00;99.90;;;;;;5008722;28;20678;-70
2022/04/11 00:51:05;;;;;;;1.10;1.00;;;0.90;99.90;;;;;;5027606;28;20214;-70
2022/04/11 00:53:32;;;;;;;2.80;1.20;;;0.80;99.90;;;;;;5024940;28;20199;-71
2022/04/11 00:56:00;;;;;;;1.60;1.00;;;0.90;99.90;;;;;;5026630;28;20216;-69
2022/04/11 00:58:28;;;;;;;1.30;1.20;;;0.80;99.90;;;;;;5024106;28;20214;-71
2022/04/11 01:00:54;;;;;;;2.07;0.90;;;0.80;99.90;;;;;;5025285;28;20240;-69
2022/04/11 01:03:21;;;;;;;2.37;1.33;;;0.80;99.90;;;;;;5024629;28;20206;-69
2022/04/11 01:05:47;;;;;;;1.60;1.33;;;0.70;99.90;;;;;;5025493;28;20187;-70
2022/04/11 01:08:13;;;;;;;1.73;1.10;;;0.70;99.90;;;;;;5023687;28;20697;-71
2022/04/11 01:10:39;;;;;;;3.67;1.30;;;0.80;99.90;;;;;;5025528;28;20324;-69
2022/04/11 01:13:04;;;;;;;2.43;1.20;;;0.90;99.90;;;;;;5024696;28;20198;-70
2022/04/11 01:15:30;;;;;;;2.57;1.40;;;0.80;99.90;;;;;;5025285;28;20350;-70
2022/04/11 01:17:56;;;;;;;1.87;1.23;;;0.70;99.90;;;;;;5028414;28;20190;-70
2022/04/11 01:20:21;;;;;;;2.20;1.70;;;0.80;99.90;;;;;;5028941;28;20183;-70
2022/04/11 01:22:48;;;;;;;2.07;1.30;;;0.70;99.90;;;;;;5029006;28;20578;-70
2022/04/11 01:25:15;;;;;;;1.57;1.10;;;0.60;99.90;;;;;;5024854;28;20200;-69
2022/04/11 01:27:41;;;;;;;1.97;1.13;;;0.60;99.90;;;;;;5022547;28;20186;-69
2022/04/11 01:30:09;;;;;;;1.50;1.20;;;0.60;99.90;;;;;;5023707;28;20205;-68
2022/04/11 01:32:36;;;;;;;1.33;1.10;;;0.60;99.90;;;;;;5031241;28;20186;-71
2022/04/11 01:35:02;;;;;;;3.03;1.33;;;0.70;99.90;;;;;;5024166;28;20214;-70
2022/04/11 01:37:28;;;;;;;3.17;1.53;;;0.60;99.90;;;;;;5023355;28;20175;-69
2022/04/11 01:39:54;;;;;;;2.07;1.23;;;0.60;99.90;;;;;;5007313;28;20214;-69
2022/04/11 01:42:19;;;;;;;2.03;1.40;;;0.70;99.90;;;;;;5024242;28;20252;-69
2022/04/11 01:44:45;;;;;;;2.03;1.00;;;0.70;99.90;;;;;;5007078;28;20768;-70
2022/04/11 01:47:11;;;;;;;2.23;1.10;;;0.60;99.90;;;;;;5023939;28;20258;-70
2022/04/11 01:49:37;;;;;;;2.17;1.30;;;0.50;99.90;;;;;;5024237;28;20210;-69
2022/04/11 01:52:03;;;;;;;1.93;1.20;;;0.50;99.90;;;;;;5024933;28;20187;-70
2022/04/11 01:54:28;;;;;;;1.33;1.20;;;0.50;99.90;;;;;;5006754;28;20245;-70
2022/04/11 01:56:54;;;;;;;2.00;0.90;;;0.50;99.90;;;;;;5024105;28;20187;-69
2022/04/11 01:59:20;;;;;;;1.87;1.30;;;0.60;99.90;;;;;;5024065;28;20545;-71
2022/04/11 02:01:45;;;;;;;1.40;1.10;;;0.60;99.90;;;;;;5024339;28;20564;-70
2022/04/11 02:04:11;;;;;;;3.33;1.50;;;0.50;99.90;;;;;;5024287;28;20338;-70
2022/04/11 02:06:37;;;;;;;3.37;1.57;;;0.50;99.90;;;;;;5029338;28;20258;-69
2022/04/11 02:09:04;;;;;;;1.40;1.03;;;0.40;99.90;;;;;;5025819;28;20217;-71
2022/04/11 02:11:29;;;;;;;2.63;1.43;;;0.40;99.90;;;;;;5006441;28;20713;-71
2022/04/11 02:13:55;;;;;;;1.60;1.20;;;0.30;99.90;;;;;;5006986;28;20286;-70
2022/04/11 02:16:22;;;;;;;1.10;1.00;;;0.20;99.90;;;;;;5029170;28;20186;-69
2022/04/11 02:18:48;;;;;;;1.93;1.30;;;0.30;99.90;;;;;;5023055;28;20203;-70
2022/04/11 02:21:13;;;;;;;1.20;1.10;;;0.40;99.90;;;;;;5023493;28;20245;-69
2022/04/11 02:23:39;;;;;;;1.30;1.20;;;0.30;99.90;;;;;;5023629;28;20745;-71
2022/04/11 02:26:05;;;;;;;1.80;1.40;;;0.40;99.90;;;;;;5030506;28;20178;-69
2022/04/11 02:28:30;;;;;;;2.60;1.20;;;0.30;99.90;;;;;;5022886;28;20203;-68
2022/04/11 02:30:56;;;;;;;2.87;1.53;;;0.30;99.90;;;;;;5024892;28;20635;-70
2022/04/11 02:33:21;;;;;;;2.93;1.17;;;0.30;99.90;;;;;;5027686;28;20193;-69
2022/04/11 02:35:47;;;;;;;1.27;1.00;;;0.10;99.90;;;;;;5024571;28;20187;-68
2022/04/11 02:38:13;;;;;;;1.93;1.20;;;0.20;99.90;;;;;;5022739;28;20769;-68
2022/04/11 02:40:39;;;;;;;2.10;1.80;;;0.10;99.90;;;;;;5026545;28;20179;-70
2022/04/11 02:43:05;;;;;;;3.37;1.27;;;0.20;99.90;;;;;;5027101;28;20606;-70
2022/04/11 02:45:31;;;;;;;1.50;1.10;;;0.10;99.90;;;;;;5027590;28;20179;-70
2022/04/11 02:47:56;;;;;;;1.67;0.83;;;0.10;99.90;;;;;;5028008;28;20270;-71
2022/04/11 02:50:22;;;;;;;1.27;1.00;;;0.10;99.90;;;;;;5035795;28;20189;-72
2022/04/11 02:52:48;;;;;;;1.80;1.20;;;0.10;99.90;;;;;;5027437;28;20264;-69
2022/04/11 02:55:13;;;;;;;2.17;1.30;;;0.00;99.90;;;;;;5033688;28;20183;-70
2022/04/11 02:57:39;;;;;;;2.53;1.27;;;0.10;99.90;;;;;;5033670;28;20203;-70
2022/04/11 03:00:13;;;;;;;2.00;1.10;;;0.10;99.90;;;;;;5035314;28;20213;-69
2022/04/11 03:02:39;;;;;;;0.90;0.83;;;0.00;99.90;;;;;;5026777;28;20218;-69
2022/04/11 03:05:05;;;;;;;2.07;0.90;;;0.10;99.90;;;;;;5030633;28;20213;-70
2022/04/11 03:07:31;;;;;;;2.83;1.20;;;0.00;99.90;;;;;;5025294;28;20521;-68
2022/04/11 03:09:56;;;;;;;0.93;0.87;;;0.00;99.90;;;;;;5026184;28;20214;-70
2022/04/11 03:12:24;;;;;;;2.77;1.07;;;-0.10;99.90;;;;;;5026541;28;20179;-69
2022/04/11 03:14:50;;;;;;;3.03;1.13;;;0.00;99.90;;;;;;5026920;28;20183;-69
2022/04/11 03:17:17;;;;;;;1.90;1.43;;;0.00;99.90;;;;;;5032015;28;20736;-71
2022/04/11 03:19:44;;;;;;;2.17;1.00;;;0.00;99.90;;;;;;5013352;28;20229;-71
2022/04/11 03:22:10;;;;;;;1.63;1.10;;;-0.10;99.90;;;;;;5026836;28;20319;-70
2022/04/11 03:24:36;;;;;;;1.53;1.07;;;-0.20;99.90;;;;;;5009031;28;20182;-70
2022/04/11 03:27:02;;;;;;;1.67;1.03;;;-0.20;99.90;;;;;;5025865;28;20555;-70
2022/04/11 03:29:28;;;;;;;1.63;1.20;;;-0.20;99.90;;;;;;5027864;28;20665;-70
2022/04/11 03:31:53;;;;;;;1.43;1.13;;;-0.20;99.90;;;;;;5029604;28;20213;-68
2022/04/11 03:34:19;;;;;;;1.53;1.10;;;-0.30;99.90;;;;;;5026346;28;20190;-69
2022/04/11 03:36:45;;;;;;;1.63;1.23;;;-0.30;99.90;;;;;;5025838;28;20183;-70
2022/04/11 03:39:10;;;;;;;1.80;1.30;;;-0.30;99.90;;;;;;5010759;28;20220;-71
2022/04/11 03:41:36;;;;;;;2.63;1.27;;;-0.40;99.90;;;;;;5031574;28;20261;-70
2022/04/11 03:44:02;;;;;;;2.27;1.20;;;-0.50;99.90;;;;;;5028090;28;20353;-69
2022/04/11 03:46:28;;;;;;;2.57;1.53;;;-0.50;99.90;;;;;;5025756;28;20261;-69
2022/04/11 03:48:54;;;;;;;1.83;1.10;;;-0.40;99.90;;;;;;5026076;28;20203;-69
2022/04/11 03:51:20;;;;;;;1.67;1.13;;;-0.40;99.90;;;;;;5025020;28;20190;-71
2022/04/11 03:53:47;;;;;;;1.60;1.30;;;-0.40;99.90;;;;;;5030699;28;20183;-68
2022/04/11 03:56:17;;;;;;;1.57;1.37;;;-0.40;99.90;;;;;;5024785;28;20186;-69
2022/04/11 03:58:44;;;;;;;1.80;1.33;;;-0.30;99.90;;;;;;5025140;28;20292;-69
2022/04/11 04:01:10;;;;;;;2.20;1.47;;;-0.30;99.90;;;;;;5030065;28;20558;-70
2022/04/11 04:03:36;;;;;;;2.03;1.03;;;-0.30;99.90;;;;;;5025514;28;20214;-68
2022/04/11 04:06:02;;;;;;;1.67;1.40;;;-0.30;99.90;;;;;;5026770;28;20688;-69
2022/04/11 04:08:27;;;;;;;1.57;1.07;;;-0.20;99.90;;;;;;5031600;28;20199;-70
2022/04/11 04:10:53;;;;;;;1.63;1.03;;;-0.10;99.90;;;;;;5026094;28;20577;-69
2022/04/11 04:13:19;;;;;;;2.00;0.90;;;0.00;99.90;;;;;;5025470;28;20186;-70
2022/04/11 04:15:44;;;;;;;2.37;1.23;;;0.10;99.90;;;;;;5025513;28;20328;-70
2022/04/11 04:18:12;;;;;;;1.20;1.00;;;0.20;99.90;;;;;;5024830;28;20198;-69
2022/04/11 04:20:38;;;;;;;1.43;1.10;;;0.20;99.90;;;;;;5028770;28;20272;-69
2022/04/11 04:23:04;;;;;;;1.70;1.20;;;0.20;99.90;;;;;;5008916;28;20247;-69
2022/04/11 04:25:30;;;;;;;2.17;1.20;;;0.20;99.90;;;;;;5018598;28;20264;-68
2022/04/11 04:27:55;;;;;;;1.87;1.10;;;0.20;99.90;;;;;;5029048;28;20190;-71
2022/04/11 04:30:21;;;;;;;2.63;1.20;;;0.20;99.90;;;;;;5014138;28;20190;-71
2022/04/11 04:32:48;;;;;;;1.47;1.13;;;0.30;99.90;;;;;;5025023;28;20183;-70
2022/04/11 04:35:14;;;;;;;4.10;1.33;;;0.30;99.90;;;;;;5025221;28;20588;-69
2022/04/11 04:37:40;;;;;;;2.50;0.90;;;0.40;99.90;;;;;;5008104;28;20549;-69
2022/04/11 04:40:06;;;;;;;2.13;1.13;;;0.40;99.90;;;;;;5035098;28;20206;-70
2022/04/11 04:42:31;;;;;;;1.93;1.23;;;0.50;99.90;;;;;;5024951;28;20321;-71
2022/04/11 04:44:57;;;;;;;3.73;2.50;;;0.50;99.90;;;;;;5025402;28;20630;-71
2022/04/11 04:47:25;;;;;;;4.03;2.10;;;0.60;99.90;;;;;;5024143;28;20647;-72
2022/04/11 04:49:51;;;;;;;4.17;2.50;;;0.60;99.90;;;;;;5024360;28;20249;-70
2022/04/11 04:52:16;;;;;;;8.40;4.33;;;0.70;99.90;;;;;;5031028;28;20731;-70
2022/04/11 04:54:42;;;;;;;6.90;3.97;;;0.70;99.90;;;;;;5024654;28;20187;-69
2022/04/11 04:57:07;;;;;;;12.43;5.60;;;0.80;99.90;;;;;;5023882;28;20260;-71
2022/04/11 04:59:33;;;;;;;7.30;5.10;;;0.90;99.90;;;;;;5026319;28;20206;-70
2022/04/11 05:01:59;;;;;;;6.23;3.43;;;1.00;99.90;;;;;;5026910;28;20235;-70
2022/04/11 05:04:25;;;;;;;4.17;2.50;;;1.10;99.90;;;;;;5024716;28;20241;-71
2022/04/11 05:06:51;;;;;;;3.60;2.13;;;1.10;99.90;;;;;;5027393;28;20186;-69
2022/04/11 05:09:17;;;;;;;4.00;2.50;;;1.20;99.90;;;;;;5024500;28;20667;-71
2022/04/11 05:11:43;;;;;;;2.77;1.70;;;1.20;99.90;;;;;;5027081;28;20185;-70
2022/04/11 05:14:08;;;;;;;4.20;2.00;;;1.30;99.90;;;;;;5028205;28;20766;-70
2022/04/11 05:16:34;;;;;;;2.20;1.50;;;1.30;99.90;;;;;;5027975;28;20269;-70
2022/04/11 05:18:59;;;;;;;1.70;1.50;;;1.40;99.90;;;;;;5026088;28;20201;-71
2022/04/11 05:21:25;;;;;;;1.87;1.47;;;1.50;99.90;;;;;;5028750;28;20203;-69
2022/04/11 05:23:51;;;;;;;3.03;1.27;;;1.60;99.90;;;;;;5030206;28;20593;-68
2022/04/11 05:26:18;;;;;;;1.60;1.20;;;1.50;99.90;;;;;;5023052;28;20178;-70
2022/04/11 05:28:44;;;;;;;1.40;1.10;;;1.70;99.90;;;;;;5024287;28;20234;-70
2022/04/11 05:31:10;;;;;;;1.33;1.13;;;1.70;99.90;;;;;;5024359;28;20760;-72
2022/04/11 05:33:35;;;;;;;3.20;2.57;;;1.70;99.90;;;;;;5032320;28;20194;-70
2022/04/11 05:36:01;;;;;;;6.17;5.23;;;1.70;99.90;;;;;;5024386;28;21123;-70
2022/04/11 05:38:27;;;;;;;2.07;1.87;;;1.90;99.90;;;;;;5022511;28;20217;-69
2022/04/11 05:40:52;;;;;;;3.97;2.53;;;1.90;99.90;;;;;;5022623;28;20650;-70
2022/04/11 05:43:18;;;;;;;2.73;1.80;;;2.10;99.90;;;;;;5006724;28;20222;-71
2022/04/11 05:45:44;;;;;;;2.80;1.70;;;2.20;99.90;;;;;;5025108;28;20225;-69
2022/04/11 05:48:10;;;;;;;77.67;34.07;;;2.40;99.90;;;;;;5023245;28;20321;-70
2022/04/11 05:50:36;;;;;;;76.13;37.93;;;2.80;99.90;;;;;;5028424;28;20190;-69
2022/04/11 05:53:02;;;;;;;77.17;36.20;;;2.90;99.90;;;;;;5023771;28;20201;-69
2022/04/11 05:55:29;;;;;;;35.50;17.63;;;3.10;99.90;;;;;;5041617;22;20242;-80
2022/04/11 05:57:54;;;;;;;189.17;88.63;;;3.00;99.90;;;;;;5004414;28;20203;-80
2022/04/11 06:00:20;;;;;;;41.37;24.17;;;3.10;99.90;;;;;;4994544;28;20678;-81
2022/04/11 06:02:47;;;;;;;36.80;27.33;;;3.20;99.90;;;;;;5005682;28;20215;-80
2022/04/11 06:05:13;;;;;;;9.63;6.20;;;3.20;99.90;;;;;;4994246;28;20179;-80
2022/04/11 06:07:40;;;;;;;17.97;12.07;;;3.30;99.90;;;;;;4994095;28;20254;-82
2022/04/11 06:10:07;;;;;;;25.47;21.20;;;3.40;99.90;;;;;;4993387;28;20211;-82
2022/04/11 06:12:33;;;;;;;8.33;5.60;;;3.50;99.90;;;;;;5006338;28;20245;-81
2022/04/11 06:14:59;;;;;;;3.20;2.33;;;3.80;99.90;;;;;;5005239;28;20330;-81
2022/04/11 06:17:25;;;;;;;2.17;1.73;;;4.10;99.90;;;;;;4998886;28;20673;-81
2022/04/11 06:19:55;;;;;;;2.40;1.53;;;4.40;99.90;;;;;;5007771;28;20227;-80
2022/04/11 06:22:21;;;;;;;2.90;1.57;;;4.70;99.90;;;;;;5011735;28;20230;-81
2022/04/11 06:24:47;;;;;;;4.37;2.57;;;4.90;99.90;;;;;;5010236;28;20229;-81
2022/04/11 06:27:13;;;;;;;2.63;1.77;;;5.00;99.90;;;;;;4998243;28;20318;-81
2022/04/11 06:29:39;;;;;;;2.83;2.17;;;5.30;99.90;;;;;;4997585;28;20214;-82
2022/04/11 06:32:05;;;;;;;2.53;1.67;;;5.60;99.90;;;;;;4998218;28;20196;-81
2022/04/11 06:34:35;;;;;;;3.37;3.07;;;6.10;99.90;;;;;;5008948;28;20326;-82
2022/04/11 06:37:01;;;;;;;5.67;3.53;;;6.60;99.90;;;;;;4998184;28;20586;-82
2022/04/11 06:39:27;;;;;;;1.50;1.30;;;6.80;99.90;;;;;;4998257;28;20231;-82
2022/04/11 06:41:53;;;;;;;1.80;1.17;;;6.80;99.90;;;;;;4999003;28;20183;-81
2022/04/11 06:44:19;;;;;;;2.57;1.23;;;6.70;99.90;;;;;;5007778;28;20195;-82
2022/04/11 06:46:45;;;;;;;34.17;28.00;;;6.50;99.90;;;;;;4998484;28;20179;-82
2022/04/11 06:49:10;;;;;;;8.27;7.47;;;6.40;99.90;;;;;;4997714;28;20588;-81
2022/04/11 06:51:36;;;;;;;31.27;24.00;;;6.40;99.90;;;;;;5000069;28;20270;-82
2022/04/11 06:54:02;;;;;;;5.17;3.43;;;6.50;99.90;;;;;;4998733;28;20191;-82
2022/04/11 06:56:28;;;;;;;1.57;1.23;;;6.70;99.90;;;;;;4998902;28;20245;-82
2022/04/11 06:58:53;;;;;;;8.23;5.43;;;6.80;99.90;;;;;;5008777;28;20207;-82
2022/04/11 07:01:19;;;;;;;1.73;1.10;;;7.00;99.90;;;;;;4998001;28;20682;-82
2022/04/11 07:03:44;;;;;;;2.87;1.13;;;7.10;99.90;;;;;;4998305;28;20203;-82
2022/04/11 07:06:10;;;;;;;2.70;1.50;;;7.20;99.90;;;;;;4997642;28;20179;-81
2022/04/11 07:08:36;;;;;;;1.73;0.90;;;7.40;99.90;;;;;;4997842;28;20206;-82
2022/04/11 07:11:02;;;;;;;3.50;1.43;;;7.50;99.90;;;;;;4997344;28;20599;-81
2022/04/11 07:13:28;;;;;;;2.23;1.00;;;7.50;99.90;;;;;;4998524;28;20234;-81
2022/04/11 07:15:54;;;;;;;1.57;1.07;;;7.60;99.90;;;;;;5007927;28;20227;-81
2022/04/11 07:18:20;;;;;;;5.63;2.70;;;7.80;99.90;;;;;;5009215;28;20191;-82
2022/04/11 07:20:46;;;;;;;2.47;1.03;;;8.00;99.90;;;;;;4998954;28;20620;-81
2022/04/11 07:23:11;;;;;;;1.20;0.80;;;8.20;99.90;;;;;;4997621;28;20203;-82
2022/04/11 07:25:38;;;;;;;1.03;0.93;;;8.30;99.90;;;;;;4998470;28;20191;-82
2022/04/11 07:28:05;;;;;;;4.27;1.00;;;8.30;99.90;;;;;;5013270;28;20207;-81
2022/04/11 07:30:31;;;;;;;1.70;1.07;;;8.40;99.90;;;;;;5007576;28;20776;-81
2022/04/11 07:32:57;;;;;;;1.67;1.10;;;8.50;99.90;;;;;;5003543;28;20286;-81
2022/04/11 07:35:23;;;;;;;2.20;0.90;;;8.60;99.90;;;;;;5026165;28;20179;-81
2022/04/11 07:37:49;;;;;;;3.00;0.83;;;8.90;99.90;;;;;;5015089;28;20199;-82
2022/04/11 07:40:14;;;;;;;2.73;1.00;;;9.00;99.90;;;;;;5025335;28;20222;-82
2022/04/11 07:42:40;;;;;;;2.50;1.27;;;9.20;99.90;;;;;;5015433;28;20211;-81
2022/04/11 07:45:06;;;;;;;2.20;0.90;;;9.30;99.90;;;;;;5018806;28;20179;-81
2022/04/11 07:47:32;;;;;;;1.43;1.10;;;9.30;99.90;;;;;;5027818;28;20198;-81
2022/04/11 07:49:57;;;;;;;3.73;1.23;;;9.30;99.90;;;;;;5028374;28;20227;-81
2022/04/11 07:52:23;;;;;;;1.43;1.20;;;9.30;99.90;;;;;;5027002;28;20231;-82
2022/04/11 07:54:48;;;;;;;1.97;1.30;;;9.30;99.90;;;;;;5018540;28;20196;-82
2022/04/11 07:57:14;;;;;;;1.53;1.20;;;9.30;99.90;;;;;;5027640;28;20179;-82
2022/04/11 07:59:40;;;;;;;3.20;2.30;;;9.50;99.90;;;;;;5022178;28;20196;-81
2022/04/11 08:02:06;;;;;;;3.50;1.80;;;9.80;99.90;;;;;;5015004;28;20187;-79
2022/04/11 08:04:32;;;;;;;1.13;1.00;;;9.90;99.90;;;;;;5008316;28;20180;-85
2022/04/11 08:06:59;;;;;;;2.77;1.30;;;10.00;99.90;;;;;;5011639;28;20321;-79
2022/04/11 08:09:25;;;;;;;1.37;1.27;;;10.10;99.90;;;;;;5000558;28;20207;-80
2022/04/11 08:11:51;;;;;;;1.20;1.10;;;10.00;99.90;;;;;;5011491;28;20194;-79
2022/04/11 08:14:16;;;;;;;2.30;1.23;;;10.10;99.90;;;;;;5010205;28;20191;-84
2022/04/11 08:16:42;;;;;;;7.33;5.07;;;10.30;99.90;;;;;;5003944;28;20199;-84
2022/04/11 08:19:08;;;;;;;2.30;1.73;;;10.50;99.90;;;;;;5001983;28;20218;-84
2022/04/11 08:21:33;;;;;;;2.03;1.10;;;10.60;99.90;;;;;;5011438;28;20206;-84
2022/04/11 08:23:59;;;;;;;2.00;1.20;;;10.80;99.90;;;;;;4996766;28;20211;-82
2022/04/11 08:26:25;;;;;;;2.38;1.45;;;11.00;99.90;;;;;;4999363;28;20198;-81
2022/04/11 08:28:50;;;;;;;2.85;2.03;;;11.10;99.90;;;;;;5010190;28;20211;-82
2022/04/11 08:31:16;;;;;;;2.10;1.43;;;11.20;99.90;;;;;;4999489;28;21251;-84
2022/04/11 08:33:41;;;;;;;2.60;1.20;;;11.10;99.90;;;;;;5009786;28;20187;-83
2022/04/11 08:36:07;;;;;;;2.03;1.27;;;11.00;99.90;;;;;;5009420;28;20845;-82
2022/04/11 08:38:32;;;;;;;2.17;1.10;;;11.00;99.90;;;;;;4996929;28;20245;-83
2022/04/11 08:41:02;;;;;;;1.87;1.27;;;10.90;99.90;;;;;;5007043;28;20210;-82
2022/04/11 08:43:28;;;;;;;2.43;1.17;;;10.90;99.90;;;;;;5013656;28;20278;-82
2022/04/11 08:45:54;;;;;;;1.87;1.10;;;10.90;99.90;;;;;;4996295;28;20609;-82
2022/04/11 08:48:23;;;;;;;1.73;1.33;;;10.80;99.90;;;;;;5004786;28;20180;-80
2022/04/11 08:50:50;;;;;;;1.90;1.30;;;10.90;99.90;;;;;;4995501;28;20237;-81
2022/04/11 08:53:21;;;;;;;1.63;1.30;;;11.00;99.90;;;;;;4994343;28;20225;-82
2022/04/11 08:55:50;;;;;;;3.00;1.83;;;11.10;99.90;;;;;;5004884;28;20203;-82
2022/04/11 08:58:16;;;;;;;2.40;1.00;;;11.20;99.90;;;;;;5004879;28;20187;-81
2022/04/11 09:00:42;;;;;;;2.00;1.47;;;11.40;99.90;;;;;;5005340;28;20188;-83
2022/04/11 09:03:08;;;;;;;2.10;1.40;;;11.50;99.60;;;;;;5009703;28;20207;-82
2022/04/11 09:05:34;;;;;;;1.83;1.33;;;11.40;97.50;;;;;;4999428;28;20192;-83
2022/04/11 09:08:00;;;;;;;1.37;1.27;;;11.40;98.50;;;;;;4997308;28;20195;-82
2022/04/11 09:10:36;;;;;;;2.97;1.63;;;11.50;98.50;;;;;;4998029;28;20230;-85
2022/04/11 09:13:06;;;;;;;3.60;1.90;;;11.50;97.40;;;;;;5016202;28;20187;-82
2022/04/11 09:15:41;;;;;;;2.73;2.10;;;11.40;97.20;;;;;;5007781;28;20183;-84
2022/04/11 09:18:07;;;;;;;3.63;2.70;;;11.60;97.00;;;;;;5000425;28;20248;-80
2022/04/11 09:20:33;;;;;;;5.75;3.53;;;11.90;95.40;;;;;;4998594;28;20534;-81
2022/04/11 09:22:59;;;;;;;4.75;2.80;;;11.70;94.90;;;;;;5009316;28;20211;-80
2022/04/11 09:25:30;;;;;;;4.82;3.55;;;11.60;95.60;;;;;;4999509;28;20190;-85
2022/04/11 09:28:07;;;;;;;3.85;2.50;;;11.50;96.00;;;;;;4999140;28;20214;-81
2022/04/11 09:30:33;;;;;;;2.95;2.00;;;11.70;94.10;;;;;;5008897;28;20222;-85
2022/04/11 09:33:04;;;;;;;3.42;2.10;;;11.80;94.40;;;;;;4998462;28;20270;-82
2022/04/11 09:35:34;;;;;;;4.57;2.22;;;11.70;96.00;;;;;;4998229;28;20331;-79
2022/04/11 09:40:54;;;;;;;3.72;2.47;;;11.70;93.00;;;;;;5030105;22;20242;-70
2022/04/11 09:43:28;;;;;;;3.28;2.60;;;11.60;92.90;;;;;;5022596;28;20210;-69
2022/04/11 09:45:54;;;;;;;4.32;2.78;;;11.70;92.50;;;;;;5022869;28;20183;-69
2022/04/11 09:48:22;;;;;;;6.45;3.13;;;11.80;90.20;;;;;;5021642;28;20257;-70
2022/04/11 09:50:49;;;;;;;4.40;2.80;;;12.00;88.90;;;;;;5025214;28;20596;-70
2022/04/11 09:53:16;;;;;;;4.70;2.60;;;12.20;91.10;;;;;;5027268;28;20200;-70
2022/04/11 09:55:43;;;;;;;3.92;2.63;;;12.40;89.80;;;;;;5008296;28;20197;-70
2022/04/11 09:58:09;;;;;;;3.53;2.63;;;12.50;90.30;;;;;;5025680;28;20212;-70
2022/04/11 10:00:39;;;;;;;3.53;2.78;;;12.60;89.70;;;;;;5027019;28;20626;-70
2022/04/11 10:03:06;;;;;;;4.32;2.95;;;12.70;86.00;;;;;;5026957;28;20796;-70
2022/04/11 10:05:36;;;;;;;5.95;2.80;;;12.80;84.60;;;;;;5027486;28;20256;-70
2022/04/11 10:08:08;;;;;;;3.53;3.22;;;12.80;84.90;;;;;;5025729;28;20187;-71
2022/04/11 10:10:38;;;;;;;5.13;3.00;;;12.80;81.30;;;;;;5026134;28;20187;-70
2022/04/11 10:13:15;;;;;;;6.50;3.30;;;12.90;82.80;;;;;;5010435;28;20277;-69
2022/04/11 10:15:43;;;;;;;4.40;3.42;;;13.00;83.60;;;;;;5027791;28;20191;-69
2022/04/11 10:18:14;;;;;;;4.28;3.50;;;12.90;81.10;;;;;;5027202;28;20187;-70
2022/04/11 10:20:48;;;;;;;4.25;3.40;;;13.00;82.00;;;;;;5027772;28;20221;-69
2022/04/11 10:23:34;;;;;;;7.00;3.40;;;13.20;81.70;;;;;;5028284;28;20658;-70
2022/04/11 10:26:12;;;;;;;3.65;2.75;;;13.40;78.10;;;;;;5027768;28;20645;-70
2022/04/11 10:28:47;;;;;;;4.43;2.63;;;13.20;78.00;;;;;;5026917;28;20552;-70
2022/04/11 10:31:14;;;;;;;5.35;3.22;;;13.30;79.80;;;;;;5010192;28;20175;-70
2022/04/11 10:33:51;;;;;;;3.88;2.78;;;13.50;78.10;;;;;;5027878;28;20533;-70
2022/04/11 10:36:31;;;;;;;8.27;3.08;;;13.60;78.30;;;;;;5008861;28;20217;-70
2022/04/11 10:39:15;;;;;;;3.40;2.95;;;13.50;75.50;;;;;;5027193;28;20308;-69
2022/04/11 10:41:56;;;;;;;3.33;2.50;;;13.30;77.20;;;;;;5009835;28;20194;-69
2022/04/11 10:44:43;;;;;;;3.53;2.53;;;13.40;80.00;;;;;;5027514;28;20210;-69
2022/04/11 10:47:09;;;;;;;3.38;3.08;;;13.60;75.60;;;;;;5026837;28;20202;-69
2022/04/11 10:49:53;;;;;;;6.00;3.13;;;13.50;75.50;;;;;;5026991;28;20636;-69
2022/04/11 10:52:36;;;;;;;5.20;3.13;;;13.40;75.90;;;;;;5009622;28;20183;-69
2022/04/11 10:55:11;;;;;;;3.10;2.80;;;13.30;78.40;;;;;;5026780;28;20183;-69
2022/04/11 10:57:44;;;;;;;3.95;2.95;;;13.40;78.20;;;;;;5024629;28;20926;-69
2022/04/11 11:00:14;;;;;;;4.40;3.58;;;13.20;74.70;;;;;;5007248;28;20690;-70
2022/04/11 11:05:28;;;;;;;3.58;2.85;;;13.10;77.20;;;;;;5025685;28;20186;-70
2022/04/11 11:08:13;;;;;;;6.38;3.13;;;13.20;74.20;;;;;;5023935;28;20642;-69
2022/04/11 11:10:43;;;;;;;3.33;2.72;;;13.50;75.30;;;;;;5021000;28;20179;-70
2022/04/11 11:13:37;;;;;;;5.57;3.05;;;13.70;76.30;;;;;;5024734;28;20194;-70
2022/04/11 11:16:10;;;;;;;3.20;2.72;;;13.80;74.10;;;;;;5026066;28;20713;-70
2022/04/11 11:18:59;;;;;;;3.35;2.85;;;13.70;73.40;;;;;;5026269;28;20202;-69
2022/04/11 11:21:27;;;;;;;4.22;2.88;;;13.50;71.70;;;;;;5017814;28;20253;-69
2022/04/11 11:24:10;;;;;;;4.28;3.10;;;13.10;71.20;;;;;;5026509;28;20284;-70
2022/04/11 11:26:57;;;;;;;4.15;2.95;;;12.90;71.80;;;;;;5025481;28;20602;-69
2022/04/11 11:29:43;;;;;;;3.33;2.72;;;13.00;73.80;;;;;;5025797;28;20229;-70
2022/04/11 11:32:12;;;;;;;5.60;3.30;;;13.40;72.90;;;;;;5026520;28;20218;-68
2022/04/11 11:34:38;;;;;;;3.70;2.83;;;13.80;73.40;;;;;;5008532;28;20183;-69
2022/04/11 11:37:07;;;;;;;8.45;5.70;;;14.10;71.50;;;;;;5025277;28;20197;-70
2022/04/11 11:39:38;;;;;;;4.07;3.00;;;14.20;69.10;;;;;;5025550;28;20287;-69
2022/04/11 11:42:06;;;;;;;3.33;2.80;;;14.40;70.30;;;;;;5025059;28;20179;-71
2022/04/11 11:44:32;;;;;;;3.35;2.67;;;14.30;69.90;;;;;;5025605;28;20270;-70
2022/04/11 11:47:00;;;;;;;3.38;2.72;;;14.20;67.40;;;;;;5025154;28;20197;-69
2022/04/11 11:49:36;;;;;;;3.50;2.50;;;14.30;64.80;;;;;;5025925;28;20229;-70
2022/04/11 11:52:02;;;;;;;3.10;2.70;;;14.30;65.90;;;;;;5025898;28;20183;-70
2022/04/11 11:54:36;;;;;;;2.67;2.45;;;14.10;66.00;;;;;;5025988;28;20183;-70
2022/04/11 11:57:03;;;;;;;2.75;2.45;;;14.00;68.60;;;;;;5023996;28;20194;-70
2022/04/11 11:59:29;;;;;;;3.80;2.75;;;14.10;69.00;;;;;;5025610;28;20265;-69
2022/04/11 12:04:41;;;;;;;4.68;2.55;;;14.50;63.80;;;;;;5026087;28;20625;-70
2022/04/11 12:07:07;;;;;;;5.28;3.03;;;14.20;62.30;;;;;;5025483;28;20186;-70
2022/04/11 12:09:35;;;;;;;3.13;2.90;;;13.90;65.90;;;;;;5025562;28;20210;-71
2022/04/11 12:12:01;;;;;;;3.15;2.85;;;13.70;65.20;;;;;;5025189;28;20210;-69
2022/04/11 12:14:27;;;;;;;4.00;2.95;;;13.80;65.70;;;;;;5025599;28;20269;-69
2022/04/11 12:17:00;;;;;;;4.13;2.85;;;13.90;68.40;;;;;;5025103;28;20713;-69
2022/04/11 12:19:37;;;;;;;6.28;2.78;;;14.00;69.50;;;;;;5025768;28;20234;-69
2022/04/11 12:22:14;;;;;;;2.97;2.42;;;14.10;70.00;;;;;;5025570;28;20190;-70
2022/04/11 12:24:40;;;;;;;5.93;2.90;;;14.20;68.20;;;;;;5025657;28;20601;-70
2022/04/11 12:27:12;;;;;;;4.57;2.58;;;14.20;68.70;;;;;;5024911;28;20245;-70
2022/04/11 12:29:42;;;;;;;3.75;2.97;;;14.10;66.40;;;;;;5024800;28;20300;-69
2022/04/11 12:32:13;;;;;;;6.13;3.30;;;14.20;68.80;;;;;;5025026;28;20237;-69
2022/04/11 12:34:49;;;;;;;3.28;2.60;;;14.40;68.60;;;;;;5025596;28;20175;-70
2022/04/11 12:37:16;;;;;;;4.22;2.60;;;14.40;67.60;;;;;;5024670;28;20602;-68
2022/04/11 12:39:58;;;;;;;4.93;2.90;;;14.40;68.40;;;;;;5025031;28;20589;-69
2022/04/11 12:42:26;;;;;;;4.57;2.83;;;14.40;65.60;;;;;;5025023;28;20171;-69
2022/04/11 12:45:02;;;;;;;5.15;3.10;;;14.10;65.00;;;;;;5025541;28;20268;-69
2022/04/11 12:47:27;;;;;;;3.20;2.38;;;14.30;67.10;;;;;;5024511;28;20171;-68
2022/04/11 12:49:54;;;;;;;5.07;3.85;;;14.30;66.10;;;;;;5024844;28;20253;-69
2022/04/11 12:52:21;;;;;;;4.88;2.60;;;14.40;65.20;;;;;;5024996;28;20302;-69
2022/04/11 12:54:51;;;;;;;3.53;2.65;;;14.40;64.40;;;;;;5007735;28;20240;-69
2022/04/11 12:57:24;;;;;;;4.25;2.58;;;14.40;64.20;;;;;;5024124;28;20183;-69
2022/04/11 12:59:51;;;;;;;3.00;2.35;;;14.40;63.70;;;;;;5007221;28;20199;-72
2022/04/11 13:02:22;;;;;;;5.28;2.90;;;14.60;65.60;;;;;;5025050;28;20262;-70
2022/04/11 13:04:52;;;;;;;2.85;2.45;;;14.80;64.00;;;;;;5025344;28;20193;-70